Minneapolis, Minnesota
Traffic Map
Current Weather Conditions
Minneapolis, Minnesota
Overcast
Overcast
63°
Feels Like: 63°
Wind Chill: 63° Ceiling: 20000
Heat Index: 63° Visibility: 9mi
Dew Point: 52° Wind: 7mph
Humidity: 67% Direction: 60° (ENE)
Pressure: 29.96in Gusts: 0mph
Raw Report DataKMSP 010553Z 06006KT 9SM OVC200 17/11 A2996 RMK AO2 SLP142 T01720111 10228 20172 402500167 50005
Traffic Incident Summary
Active as of:
Severity:
Category:
InformationThere was an issue retrieving the traffic information for this location. Please try a different location or try again shortly.
Advertisements
Track Severe Weather on mobile